Time;durP1;ratioP1;P1;durP2;ratioP2;P2;SDS_P1;SDS_P2;PMS_P1;PMS_P2;Temp;Humidity;BMP_temperature;BMP_pressure;BME280_temperature;BME280_humidity;BME280_pressure;Samples;Min_cycle;Max_cycle;Signal;HPM_P1;HPM_P2
2023/06/25 00:04:40;;;;;;;10.05;6.63;;;;;;;;;;20998817;28;20532;-70
2023/06/25 00:14:41;;;;;;;8.60;6.00;;;;;;;;;;20998967;28;20117;-70
2023/06/25 00:24:42;;;;;;;14.18;8.68;;;;;;;;;;20998200;28;20143;-70
2023/06/25 00:34:44;;;;;;;14.70;9.45;;;;;;;;;;20996917;28;20421;-71
2023/06/25 00:44:45;;;;;;;10.77;7.60;;;;;;;;;;21000742;28;20048;-70
2023/06/25 00:54:46;;;;;;;8.30;5.60;;;;;;;;;;20996889;28;20052;-71
2023/06/25 01:04:52;;;;;;;14.80;9.75;;;;;;;;;;20995215;28;20044;-72
2023/06/25 01:14:54;;;;;;;12.18;6.47;;;;;;;;;;20994839;28;20079;-71
2023/06/25 01:24:55;;;;;;;10.65;7.40;;;;;;;;;;21011461;28;20048;-70
2023/06/25 01:34:57;;;;;;;8.95;6.82;;;;;;;;;;21010192;28;20056;-71
2023/06/25 01:44:58;;;;;;;11.90;8.23;;;;;;;;;;21010129;28;20048;-70
2023/06/25 01:54:59;;;;;;;11.00;6.82;;;;;;;;;;21009439;28;20040;-69
2023/06/25 02:05:00;;;;;;;12.90;7.00;;;;;;;;;;21008891;28;20044;-70
2023/06/25 02:15:01;;;;;;;12.43;8.57;;;;;;;;;;21006791;28;20047;-70
2023/06/25 02:25:02;;;;;;;9.95;6.45;;;;;;;;;;21007271;28;20052;-70
2023/06/25 02:35:03;;;;;;;12.82;8.05;;;;;;;;;;21005990;28;20064;-69
2023/06/25 02:45:05;;;;;;;11.18;6.35;;;;;;;;;;21005883;28;20432;-70
2023/06/25 02:55:06;;;;;;;8.63;6.53;;;;;;;;;;21005213;28;20494;-71
2023/06/25 03:05:07;;;;;;;10.00;6.45;;;;;;;;;;21004452;28;20493;-69
2023/06/25 03:15:09;;;;;;;9.23;6.10;;;;;;;;;;21003605;28;20047;-70
2023/06/25 03:25:10;;;;;;;11.95;7.13;;;;;;;;;;21002596;28;20060;-71
2023/06/25 03:35:11;;;;;;;9.02;6.55;;;;;;;;;;20999960;28;20056;-69
2023/06/25 03:45:15;;;;;;;12.95;6.82;;;;;;;;;;20998830;28;20119;-70
2023/06/25 03:55:16;;;;;;;7.82;6.10;;;;;;;;;;20999212;28;20055;-69
2023/06/25 04:05:17;;;;;;;11.00;7.40;;;;;;;;;;20999615;28;20040;-70
2023/06/25 04:15:18;;;;;;;8.85;6.82;;;;;;;;;;20999100;28;20048;-70
2023/06/25 04:25:19;;;;;;;10.50;6.40;;;;;;;;;;20998396;28;20053;-70
2023/06/25 04:35:21;;;;;;;10.02;6.53;;;;;;;;;;20997805;28;20048;-70
2023/06/25 04:45:22;;;;;;;9.27;6.63;;;;;;;;;;20997640;28;20040;-70
2023/06/25 04:55:23;;;;;;;11.98;6.65;;;;;;;;;;20995447;28;20049;-71
2023/06/25 05:05:24;;;;;;;10.57;6.88;;;;;;;;;;20996660;28;20050;-71
2023/06/25 05:15:25;;;;;;;12.13;7.15;;;;;;;;;;20996228;28;20045;-70
2023/06/25 05:25:26;;;;;;;9.43;7.07;;;;;;;;;;20994331;28;20056;-71
2023/06/25 05:35:28;;;;;;;8.65;6.78;;;;;;;;;;21010140;28;20061;-70
2023/06/25 05:45:29;;;;;;;13.95;7.35;;;;;;;;;;20995516;28;20123;-70
2023/06/25 05:55:31;;;;;;;10.45;6.63;;;;;;;;;;20993663;28;20070;-71
2023/06/25 06:05:32;;;;;;;10.77;7.63;;;;;;;;;;20999237;28;20048;-71
2023/06/25 06:15:33;;;;;;;16.67;7.63;;;;;;;;;;21008588;28;20048;-70
2023/06/25 06:25:34;;;;;;;11.57;6.93;;;;;;;;;;21006482;28;20095;-71
2023/06/25 06:35:35;;;;;;;12.57;7.78;;;;;;;;;;21005995;28;20056;-71
2023/06/25 06:45:36;;;;;;;9.13;7.13;;;;;;;;;;21006108;28;20401;-71
2023/06/25 06:55:37;;;;;;;9.95;7.03;;;;;;;;;;21005163;28;20045;-72
2023/06/25 07:05:38;;;;;;;11.05;6.90;;;;;;;;;;21004235;28;20047;-71
2023/06/25 07:15:40;;;;;;;13.65;6.90;;;;;;;;;;21003071;28;20069;-71
2023/06/25 07:25:41;;;;;;;69.68;19.75;;;;;;;;;;21002199;28;20076;-71
2023/06/25 07:35:42;;;;;;;7.20;5.40;;;;;;;;;;21000624;28;20579;-71
2023/06/25 07:45:43;;;;;;;9.70;5.95;;;;;;;;;;20998733;28;20045;-71
2023/06/25 07:55:46;;;;;;;7.95;5.63;;;;;;;;;;20998547;28;20058;-70
2023/06/25 08:05:48;;;;;;;7.45;5.43;;;;;;;;;;20997447;28;20079;-70
2023/06/25 08:15:49;;;;;;;8.40;5.53;;;;;;;;;;20998386;28;20058;-71
2023/06/25 08:25:50;;;;;;;6.10;5.13;;;;;;;;;;20997321;28;20405;-72
2023/06/25 08:35:52;;;;;;;8.93;5.25;;;;;;;;;;20998122;28;20044;-70
2023/06/25 08:45:53;;;;;;;10.77;5.82;;;;;;;;;;20996481;28;20044;-71
2023/06/25 08:55:56;;;;;;;9.27;5.32;;;;;;;;;;20995022;28;20059;-71
2023/06/25 09:05:57;;;;;;;8.23;5.28;;;;;;;;;;20995960;28;20128;-71
2023/06/25 09:16:05;;;;;;;10.32;5.20;;;;;;;;;;20995371;28;20523;-71
2023/06/25 09:26:09;;;;;;;8.02;5.25;;;;;;;;;;20994944;28;20382;-71
2023/06/25 09:36:10;;;;;;;6.63;4.88;;;;;;;;;;20993859;28;20113;-70
2023/06/25 09:46:12;;;;;;;11.38;5.88;;;;;;;;;;21010172;28;20531;-69
2023/06/25 09:56:13;;;;;;;7.88;5.50;;;;;;;;;;21007626;28;20461;-69
2023/06/25 10:06:15;;;;;;;7.60;5.05;;;;;;;;;;21008867;28;20453;-69
2023/06/25 10:16:18;;;;;;;9.55;5.40;;;;;;;;;;21007504;28;20073;-71
2023/06/25 10:26:19;;;;;;;7.90;5.70;;;;;;;;;;21006475;28;20478;-72
2023/06/25 10:36:26;;;;;;;8.43;5.57;;;;;;;;;;21004934;28;20056;-71
2023/06/25 10:46:31;;;;;;;6.60;5.55;;;;;;;;;;21005339;28;20040;-72
2023/06/25 10:56:33;;;;;;;8.57;5.60;;;;;;;;;;21003230;28;20086;-73
2023/06/25 11:06:37;;;;;;;7.43;5.10;;;;;;;;;;21002688;28;20048;-71
2023/06/25 11:16:45;;;;;;;7.68;5.00;;;;;;;;;;21001518;28;20485;-71
2023/06/25 11:26:46;;;;;;;9.07;5.10;;;;;;;;;;21001486;28;20438;-72
2023/06/25 11:36:47;;;;;;;7.10;5.43;;;;;;;;;;21001370;28;20053;-73
2023/06/25 11:46:52;;;;;;;6.55;4.70;;;;;;;;;;21000610;28;20067;-72
2023/06/25 11:56:53;;;;;;;7.60;5.10;;;;;;;;;;20999816;28;20040;-72
2023/06/25 12:06:54;;;;;;;10.50;5.60;;;;;;;;;;20998060;28;20052;-73
2023/06/25 12:16:55;;;;;;;8.25;4.65;;;;;;;;;;20998060;28;20056;-72
2023/06/25 12:26:56;;;;;;;8.02;4.88;;;;;;;;;;20996313;28;20101;-72
2023/06/25 12:36:57;;;;;;;6.95;5.78;;;;;;;;;;20995737;28;20052;-72
2023/06/25 12:46:58;;;;;;;7.63;4.82;;;;;;;;;;20995054;28;20128;-72
2023/06/25 12:56:59;;;;;;;7.07;5.50;;;;;;;;;;20996301;28;20045;-72
2023/06/25 13:07:00;;;;;;;8.27;5.22;;;;;;;;;;20994356;28;20123;-72
2023/06/25 13:17:01;;;;;;;5.60;4.38;;;;;;;;;;21005410;28;20044;-72
2023/06/25 13:27:03;;;;;;;5.95;4.30;;;;;;;;;;21011224;28;20050;-72
2023/06/25 13:37:04;;;;;;;7.22;4.43;;;;;;;;;;21008969;28;20139;-72
2023/06/25 13:47:05;;;;;;;6.50;4.47;;;;;;;;;;21009505;28;20115;-72
2023/06/25 13:57:07;;;;;;;7.85;4.90;;;;;;;;;;21006955;28;20068;-72
2023/06/25 14:07:08;;;;;;;6.22;4.53;;;;;;;;;;21008362;28;20068;-72
2023/06/25 14:17:09;;;;;;;11.75;8.07;;;;;;;;;;21007319;28;20076;-72
2023/06/25 14:27:10;;;;;;;6.30;4.82;;;;;;;;;;21004457;28;20052;-72
2023/06/25 14:37:11;;;;;;;6.40;4.95;;;;;;;;;;21004060;28;20053;-73
2023/06/25 14:47:13;;;;;;;11.50;4.57;;;;;;;;;;21004340;28;20052;-72
2023/06/25 14:57:14;;;;;;;5.25;4.43;;;;;;;;;;21002274;28;20085;-73
2023/06/25 15:07:16;;;;;;;12.95;7.22;;;;;;;;;;21002831;28;20079;-72
2023/06/25 15:17:17;;;;;;;7.10;4.05;;;;;;;;;;21000471;28;20040;-72
2023/06/25 15:27:18;;;;;;;6.25;3.72;;;;;;;;;;21000022;28;20074;-71
2023/06/25 15:37:19;;;;;;;6.18;3.78;;;;;;;;;;20998225;28;20052;-69
2023/06/25 15:47:20;;;;;;;6.03;4.57;;;;;;;;;;20999480;28;20063;-69
2023/06/25 15:57:21;;;;;;;6.50;3.50;;;;;;;;;;20998713;28;20044;-70
2023/06/25 16:07:22;;;;;;;7.32;4.20;;;;;;;;;;20997599;28;20119;-69
2023/06/25 16:17:25;;;;;;;5.70;3.35;;;;;;;;;;20997687;28;20449;-69
2023/06/25 16:27:28;;;;;;;7.88;4.15;;;;;;;;;;20996980;28;20044;-69
2023/06/25 16:37:30;;;;;;;5.70;3.97;;;;;;;;;;20997128;28;20052;-68
2023/06/25 16:47:31;;;;;;;5.88;4.53;;;;;;;;;;20997454;28;20048;-70
2023/06/25 16:57:32;;;;;;;5.25;3.63;;;;;;;;;;20995305;28;20047;-69
2023/06/25 17:07:33;;;;;;;5.90;3.80;;;;;;;;;;20993446;28;20051;-70
2023/06/25 17:17:34;;;;;;;6.22;5.00;;;;;;;;;;20994033;28;20052;-68
2023/06/25 17:27:36;;;;;;;10.27;5.68;;;;;;;;;;20994643;28;20051;-69
2023/06/25 17:37:37;;;;;;;8.55;5.75;;;;;;;;;;20981251;28;20052;-69
2023/06/25 17:47:38;;;;;;;7.50;5.60;;;;;;;;;;20982550;28;20409;-69
2023/06/25 17:57:39;;;;;;;10.27;5.50;;;;;;;;;;20984714;28;20143;-69
2023/06/25 18:07:40;;;;;;;8.40;5.35;;;;;;;;;;21004660;28;20055;-69
2023/06/25 18:17:42;;;;;;;3.75;2.70;;;;;;;;;;21006246;28;20477;-69
2023/06/25 18:27:44;;;;;;;6.40;2.38;;;;;;;;;;21004284;28;20052;-69
2023/06/25 18:37:45;;;;;;;2.83;1.50;;;;;;;;;;21003905;28;20060;-69
2023/06/25 18:47:46;;;;;;;3.67;1.70;;;;;;;;;;21002712;28;20208;-69
2023/06/25 18:57:47;;;;;;;3.72;1.50;;;;;;;;;;21003467;28;20037;-71
2023/06/25 19:07:48;;;;;;;10.15;7.05;;;;;;;;;;21003021;28;20045;-69
2023/06/25 19:17:49;;;;;;;3.63;2.15;;;;;;;;;;21001350;28;20037;-69
2023/06/25 19:27:53;;;;;;;3.65;1.95;;;;;;;;;;21001145;28;20124;-69
2023/06/25 19:37:55;;;;;;;7.90;4.00;;;;;;;;;;21000193;28;20063;-70
2023/06/25 19:47:58;;;;;;;6.30;4.15;;;;;;;;;;20999886;28;20379;-69
2023/06/25 19:57:59;;;;;;;4.95;3.90;;;;;;;;;;20999144;28;20501;-70
2023/06/25 20:08:00;;;;;;;7.60;3.65;;;;;;;;;;20998159;28;20405;-69
2023/06/25 20:18:01;;;;;;;4.57;3.15;;;;;;;;;;20998399;28;20098;-69
2023/06/25 20:28:02;;;;;;;4.07;2.90;;;;;;;;;;20996167;28;20118;-70
2023/06/25 20:38:03;;;;;;;5.82;2.70;;;;;;;;;;20996346;28;20053;-70
2023/06/25 20:48:05;;;;;;;3.95;2.50;;;;;;;;;;20996869;28;20506;-69
2023/06/25 20:58:07;;;;;;;7.22;3.35;;;;;;;;;;20996191;28;20111;-69
2023/06/25 21:08:08;;;;;;;3.83;2.05;;;;;;;;;;20996314;28;20115;-68
2023/06/25 21:18:09;;;;;;;4.88;2.42;;;;;;;;;;20996137;28;20051;-71
2023/06/25 21:28:11;;;;;;;5.88;2.40;;;;;;;;;;20994098;28;20063;-70
2023/06/25 21:38:12;;;;;;;4.70;2.20;;;;;;;;;;21003397;28;20080;-70
2023/06/25 21:48:13;;;;;;;5.10;2.35;;;;;;;;;;21009062;28;20050;-70
2023/06/25 21:58:14;;;;;;;4.07;1.90;;;;;;;;;;21008275;28;20044;-70
2023/06/25 22:08:15;;;;;;;4.05;2.75;;;;;;;;;;21008998;28;20081;-69
2023/06/25 22:18:16;;;;;;;15.98;10.77;;;;;;;;;;21006900;28;20044;-70
2023/06/25 22:28:17;;;;;;;4.38;2.42;;;;;;;;;;21007545;28;20454;-69
2023/06/25 22:38:21;;;;;;;8.98;4.40;;;;;;;;;;21005265;28;20501;-69
2023/06/25 22:48:22;;;;;;;5.75;2.28;;;;;;;;;;21005134;28;20405;-70
2023/06/25 22:58:23;;;;;;;7.00;2.78;;;;;;;;;;21005582;28;20389;-69
2023/06/25 23:08:24;;;;;;;4.97;3.40;;;;;;;;;;21004784;28;20490;-70
2023/06/25 23:18:26;;;;;;;3.95;2.58;;;;;;;;;;21002544;28;20055;-70
2023/06/25 23:28:32;;;;;;;4.70;2.40;;;;;;;;;;21003236;28;20484;-69
2023/06/25 23:38:33;;;;;;;4.47;1.80;;;;;;;;;;21001199;28;20060;-68
2023/06/25 23:48:34;;;;;;;4.32;2.20;;;;;;;;;;21001514;28;20044;-69
2023/06/25 23:58:35;;;;;;;6.30;2.03;;;;;;;;;;21000583;28;20166;-69
